Knoxville, IA

2:00 PM CDT on March 23, 2017 (GMT -0500)
Knoxville Municipal

Weather History for KOXV - August, 2014

Change the Weather History Date:

Thursday, August 21, 2014

  Actual Average Record
Temperature  
Mean Temperature 80 °F -  
Max Temperature 84 °F 84 °F 100 °F (1983)
Min Temperature 75 °F 63 °F 42 °F (1950)
Cooling Degree Days 14    
Growing Degree Days 30 (Base 50)    
Moisture  
Dew Point 73 °F    
Average Humidity 81    
Maximum Humidity 89    
Minimum Humidity 70    
Precipitation  
Precipitation 0.08 in - - ()
Sea Level Pressure  
Sea Level Pressure 29.86 in    
Wind  
Wind Speed 8 mph (South)    
Max Wind Speed 16 mph    
Max Gust Speed 24 mph    
Visibility 10 miles    
Events Rain    
Averages and records for this station are not official NWS values.
T = Trace of Precipitation, MM = Missing Value Source: NWS Daily Summary

Daily Weather History Graph

Daily Weather History Graph

Search for Another Location

Airport or City:

Trip Planner

Search our weather history database for the weather conditions in past years. The results will help you decide how hot, cold, wet, or windy it might be!

Date:

Astronomy

Aug. 21, 2014 Rise Set
Actual Time 6:27 AM CDT 8:02 PM CDT
Civil Twilight 5:58 AM CDT 8:31 PM CDT
Nautical Twilight 5:23 AM CDT 9:06 PM CDT
Astronomical Twilight 4:45 AM CDT 9:44 PM CDT
Moon 2:57 AM CDT (8/21) 5:32 PM CDT (8/21)
Length of Visible Light 14h 33m
Length of Day
13h 34m
Waning Crescent, 13% of the Moon is Illuminated
Aug 21
Waning Crescent
Aug 25
New
Sep 2
First Quarter
Sep 8
Full
Sep 15
Last Quarter

Hourly Weather History & Observations

Time (CDT) Temp. Heat Index Dew Point Humidity Pressure Visibility Wind Dir Wind Speed Gust Speed Precip Events Conditions
12:15 AM 75.2 °F - 71.6 °F 89% 29.86 in 10.0 mi SE 4.6 mph - N/A   Clear
12:35 AM 75.2 °F - 71.6 °F 89% 29.85 in 10.0 mi SE 5.8 mph - N/A   Clear
12:55 AM 77.0 °F - 71.6 °F 83% 29.86 in 10.0 mi SSE 5.8 mph - N/A   Clear
1:15 AM 77.0 °F - 71.6 °F 83% 29.86 in 10.0 mi South 5.8 mph - N/A   Clear
1:35 AM 77.0 °F - 71.6 °F 83% 29.86 in 10.0 mi South 6.9 mph - N/A   Clear
1:55 AM 77.0 °F - 71.6 °F 83% 29.85 in 10.0 mi South 8.1 mph - N/A   Clear
2:15 AM 77.0 °F - 71.6 °F 83% 29.84 in 10.0 mi SSW 10.4 mph - N/A   Mostly Cloudy
2:35 AM 77.0 °F - 71.6 °F 83% 29.84 in 10.0 mi South 10.4 mph - N/A   Mostly Cloudy
2:55 AM 77.0 °F - 71.6 °F 83% 29.84 in 10.0 mi South 10.4 mph - N/A   Mostly Cloudy
3:15 AM 75.2 °F - 71.6 °F 89% 29.84 in 10.0 mi South 8.1 mph - N/A   Clear
3:35 AM 75.2 °F - 69.8 °F 83% 29.84 in 10.0 mi SSW 9.2 mph - N/A   Clear
3:55 AM 77.0 °F - 69.8 °F 78% 29.84 in 10.0 mi SSW 9.2 mph 16.1 mph N/A   Clear
4:15 AM 75.2 °F - 69.8 °F 83% 29.84 in 10.0 mi SSW 10.4 mph - N/A   Clear
4:35 AM 75.2 °F - 69.8 °F 83% 29.83 in 10.0 mi SSW 10.4 mph - N/A   Partly Cloudy
4:55 AM 75.2 °F - 69.8 °F 83% 29.83 in 10.0 mi SSW 10.4 mph - N/A   Clear
5:15 AM 75.2 °F - 69.8 °F 83% 29.81 in 10.0 mi SSW 10.4 mph - N/A   Clear
5:35 AM 75.2 °F - 69.8 °F 83% 29.81 in 10.0 mi SSW 11.5 mph - N/A   Clear
5:55 AM 75.2 °F - 68.0 °F 78% 29.82 in 10.0 mi SSW 10.4 mph 17.3 mph N/A   Clear
6:15 AM 75.2 °F - 68.0 °F 78% 29.82 in 10.0 mi SSW 11.5 mph 17.3 mph N/A   Clear
6:35 AM 75.2 °F - 68.0 °F 78% 29.83 in 10.0 mi South 9.2 mph - N/A   Scattered Clouds
6:55 AM 75.2 °F - 68.0 °F 78% 29.83 in 10.0 mi SSW 11.5 mph 18.4 mph N/A   Scattered Clouds
7:15 AM 77.0 °F - 68.0 °F 74% 29.84 in 10.0 mi SSW 12.7 mph 20.7 mph N/A   Mostly Cloudy
7:35 AM 77.0 °F - 68.0 °F 74% 29.85 in 9.0 mi SW 5.8 mph 17.3 mph N/A   Mostly Cloudy
7:55 AM 77.0 °F - 68.0 °F 74% 29.85 in 10.0 mi SSW 9.2 mph - N/A   Mostly Cloudy
8:15 AM 77.0 °F - 68.0 °F 74% 29.85 in 10.0 mi SSW 9.2 mph - N/A   Partly Cloudy
8:55 AM 77.0 °F - 69.8 °F 78% 29.86 in 10.0 mi SSW 11.5 mph 19.6 mph N/A   Partly Cloudy
9:15 AM 78.8 °F - 69.8 °F 74% 29.85 in 10.0 mi SSW 12.7 mph 20.7 mph N/A   Partly Cloudy
9:35 AM 78.8 °F - 69.8 °F 74% 29.86 in 10.0 mi SSW 10.4 mph 17.3 mph N/A   Clear
9:55 AM 80.6 °F 84.6 °F 71.6 °F 74% 29.86 in 10.0 mi SW 15.0 mph 24.2 mph N/A   Partly Cloudy
10:15 AM 80.6 °F 84.6 °F 71.6 °F 74% 29.86 in 10.0 mi SW 9.2 mph 20.7 mph N/A   Partly Cloudy
10:35 AM 82.4 °F 87.2 °F 71.6 °F 70% 29.87 in 10.0 mi SW 9.2 mph 16.1 mph N/A   Clear
10:55 AM 77.0 °F - 71.6 °F 83% 29.90 in 3.0 mi West 11.5 mph - 0.06 in Rain Rain
11:15 AM 77.0 °F - 71.6 °F 83% 29.91 in 7.0 mi West 4.6 mph 12.7 mph N/A Rain Light Rain
11:35 AM 75.2 °F - 71.6 °F 89% 29.93 in 3.0 mi West 10.4 mph 18.4 mph N/A Rain Light Rain
12:15 PM 77.0 °F - 73.4 °F 89% 29.91 in 6.0 mi Calm Calm - N/A Rain Light Rain
12:35 PM 77.0 °F - 73.4 °F 89% 29.90 in 8.0 mi Variable 3.5 mph - N/A   Scattered Clouds
12:55 PM 77.0 °F - 73.4 °F 89% 29.90 in 6.0 mi SSE 8.1 mph - 0.02 in   Partly Cloudy
1:15 PM 78.8 °F - 75.2 °F 89% 29.91 in 9.0 mi South 8.1 mph - N/A   Partly Cloudy
1:35 PM 80.6 °F 85.4 °F 73.4 °F 79% 29.89 in 10.0 mi SE 4.6 mph - N/A   Partly Cloudy
1:55 PM 80.6 °F 86.2 °F 75.2 °F 84% 29.88 in 10.0 mi South 9.2 mph - N/A   Partly Cloudy
2:15 PM 82.4 °F 89.5 °F 75.2 °F 79% 29.87 in 10.0 mi SSE 10.4 mph - N/A   Clear
2:35 PM 82.4 °F 89.5 °F 75.2 °F 79% 29.87 in 10.0 mi SSE 11.5 mph 18.4 mph N/A   Clear
2:55 PM 82.4 °F 89.5 °F 75.2 °F 79% 29.86 in 10.0 mi SSE 9.2 mph - N/A   Partly Cloudy
3:15 PM 84.2 °F 92.3 °F 75.2 °F 74% 29.85 in 10.0 mi South 13.8 mph - N/A   Partly Cloudy
3:35 PM 84.2 °F 92.3 °F 75.2 °F 74% 29.85 in 10.0 mi South 16.1 mph - N/A   Partly Cloudy
3:55 PM 84.2 °F 92.3 °F 75.2 °F 74% 29.86 in 10.0 mi South 8.1 mph 15.0 mph N/A   Scattered Clouds
4:15 PM 84.2 °F 92.3 °F 75.2 °F 74% 29.86 in 10.0 mi South 8.1 mph - N/A   Scattered Clouds
4:35 PM 84.2 °F 92.3 °F 75.2 °F 74% 29.86 in 10.0 mi South 8.1 mph - N/A   Clear
4:55 PM 84.2 °F 92.3 °F 75.2 °F 74% 29.86 in 10.0 mi South 9.2 mph - N/A   Clear
5:15 PM 84.2 °F 92.3 °F 75.2 °F 74% 29.87 in 10.0 mi SSW 5.8 mph 12.7 mph N/A   Mostly Cloudy
5:35 PM 84.2 °F 92.3 °F 75.2 °F 74% 29.86 in 10.0 mi South 9.2 mph - N/A   Mostly Cloudy
5:55 PM 84.2 °F 94.1 °F 77.0 °F 79% 29.87 in 10.0 mi South 8.1 mph - N/A   Mostly Cloudy
6:35 PM 84.2 °F 94.1 °F 77.0 °F 79% 29.86 in 10.0 mi South 5.8 mph - N/A   Mostly Cloudy
6:55 PM 84.2 °F 94.1 °F 77.0 °F 79% 29.86 in 10.0 mi South 6.9 mph - N/A   Scattered Clouds
7:15 PM 84.2 °F 94.1 °F 77.0 °F 79% 29.85 in 10.0 mi South 6.9 mph - N/A   Clear
7:35 PM 82.4 °F 90.9 °F 77.0 °F 84% 29.85 in 10.0 mi SSE 5.8 mph - N/A   Clear
7:55 PM 82.4 °F 90.9 °F 77.0 °F 84% 29.85 in 10.0 mi SSE 3.5 mph - N/A   Clear
8:15 PM 82.4 °F 90.9 °F 77.0 °F 84% 29.85 in 10.0 mi SE 3.5 mph - N/A   Clear
8:35 PM 80.6 °F 87.1 °F 77.0 °F 89% 29.85 in 10.0 mi SE 4.6 mph - N/A   Clear
8:55 PM 80.6 °F 87.1 °F 77.0 °F 89% 29.86 in 10.0 mi SE 5.8 mph - N/A   Clear
9:15 PM 80.6 °F 86.2 °F 75.2 °F 84% 29.86 in 10.0 mi SE 4.6 mph - N/A   Clear
9:35 PM 80.6 °F 86.2 °F 75.2 °F 84% 29.87 in 10.0 mi SE 4.6 mph - N/A   Partly Cloudy
9:55 PM 78.8 °F - 75.2 °F 89% 29.88 in 10.0 mi ESE 4.6 mph - N/A   Scattered Clouds
10:15 PM 78.8 °F - 75.2 °F 89% 29.87 in 10.0 mi SE 4.6 mph - N/A   Mostly Cloudy
10:35 PM 78.8 °F - 75.2 °F 89% 29.88 in 10.0 mi SE 4.6 mph - N/A   Mostly Cloudy
11:15 PM 78.8 °F - 75.2 °F 89% 29.87 in 7.0 mi ESE 4.6 mph - N/A   Light Drizzle
11:35 PM 78.8 °F - 75.2 °F 89% 29.87 in 10.0 mi East 4.6 mph - N/A   Mostly Cloudy
11:55 PM 78.8 °F - 75.2 °F 89% 29.87 in 10.0 mi Variable 3.5 mph - N/A   Mostly Cloudy